Winnebago, Illinois
Current Conditions -  °F | °C
As of 4:54 AM on Saturday 20 Dec 2014 (Local Time) from KRFD Reporting Station
Overcast Overcast  
Wind Chill: 26°   Ceiling: 4500
Heat Index: 26°   Visibility: 8mi
Dew Point: 22°   Wind: 3mph
Humidity: 84%   Direction: 110°ESE
Pressure: 30.29"   Gusts: NA
Location:  42.27°N, 89.24°W
Report Text: KRFD 201054Z 11003KT 8SM OVC045 M03/M06 A3029 RMK AO2 SLP265 T10331056
Loading
Personal Weather Stations






























Interactive Weather Map New forecast layout! Learn more

10-Day Weather Forecast

Advertisements
Track Severe Weather on mobile